createdAt,value
2022-08-09T00:00:44.666Z,40.12
2022-08-09T00:01:54.146Z,39.51
2022-08-09T00:02:49.289Z,38.91
2022-08-09T00:04:00.736Z,40.22
2022-08-09T00:04:43.365Z,39.21
2022-08-09T00:06:18.832Z,38.20
2022-08-09T00:06:44.213Z,40.63
2022-08-09T00:07:44.478Z,37.51
2022-08-09T00:08:43.319Z,36.80
2022-08-09T00:09:44.458Z,38.42
2022-08-09T00:10:43.303Z,37.30
2022-08-09T00:12:02.853Z,37.30
2022-08-09T00:12:43.274Z,37.10
2022-08-09T00:13:43.267Z,38.62
2022-08-09T00:14:43.255Z,36.29
2022-08-09T00:15:58.721Z,36.51
2022-08-09T00:16:43.231Z,35.19
2022-08-09T00:18:05.909Z,35.39
2022-08-09T00:18:44.233Z,35.60
2022-08-09T00:19:48.061Z,35.39
2022-08-09T00:20:50.033Z,35.39
2022-08-09T00:21:55.850Z,34.38
2022-08-09T00:22:43.165Z,33.97
2022-08-09T00:23:58.330Z,33.37
2022-08-09T00:24:44.168Z,34.70
2022-08-09T00:25:43.132Z,35.21
2022-08-09T00:26:43.122Z,35.51
2022-08-09T00:27:43.454Z,33.99
2022-08-09T00:28:52.322Z,34.39
2022-08-09T00:30:25.368Z,32.87
2022-08-09T00:30:44.101Z,34.70
2022-08-09T00:31:58.262Z,32.67
2022-08-09T00:32:43.058Z,32.06
2022-08-09T00:33:51.273Z,31.86
2022-08-09T00:34:51.917Z,31.35
2022-08-09T00:35:43.783Z,30.54
2022-08-09T00:36:43.014Z,32.47
2022-08-09T00:37:43.001Z,31.35
2022-08-09T00:38:42.991Z,30.94
2022-08-09T00:40:13.363Z,32.26
2022-08-09T00:40:52.697Z,34.91
2022-08-09T00:44:11.766Z,32.99
2022-08-09T00:44:13.883Z,32.59
2022-08-09T00:44:14.577Z,31.45
2022-08-09T00:44:42.925Z,31.98
2022-08-09T00:45:47.471Z,31.87
2022-08-09T00:46:56.401Z,32.48
2022-08-09T00:47:43.921Z,33.29
2022-08-09T00:48:42.881Z,33.40
2022-08-09T00:49:54.535Z,32.07
2022-08-09T00:50:43.883Z,32.59
2022-08-09T00:51:54.786Z,31.06
2022-08-09T00:52:42.846Z,30.96
2022-08-09T00:53:42.821Z,30.05
2022-08-09T00:54:43.102Z,30.05
2022-08-09T00:56:03.832Z,29.64
2022-08-09T00:56:42.793Z,30.66
2022-08-09T00:57:42.779Z,30.86
2022-08-09T00:58:42.768Z,29.44
2022-08-09T00:59:47.189Z,29.54
2022-08-09T01:00:43.774Z,31.38
2022-08-09T01:01:44.943Z,33.51
2022-08-09T01:02:42.723Z,29.86
2022-08-09T01:03:46.420Z,29.86
2022-08-09T01:04:44.018Z,30.57
2022-08-09T01:05:51.783Z,29.96
2022-08-09T01:06:54.357Z,31.59
2022-08-09T01:08:00.067Z,30.57
2022-08-09T01:08:48.861Z,30.26
2022-08-09T01:09:43.672Z,29.86
2022-08-09T01:10:42.633Z,31.38
2022-08-09T01:11:55.717Z,33.21
2022-08-09T01:12:43.634Z,33.53
2022-08-09T01:13:59.140Z,30.99
2022-08-09T01:14:42.588Z,31.50
2022-08-09T01:15:52.275Z,29.57
2022-08-09T01:16:47.169Z,29.67
2022-08-09T01:17:43.577Z,30.18
2022-08-09T01:18:42.546Z,28.04
2022-08-09T01:19:57.242Z,28.96
2022-08-09T01:20:42.523Z,29.67
2022-08-09T01:21:45.032Z,30.48
2022-08-09T01:22:43.522Z,32.71
2022-08-09T01:24:02.178Z,32.12
2022-08-09T01:24:43.950Z,29.28
2022-08-09T01:25:42.495Z,28.26
2022-08-09T01:26:43.477Z,28.65
2022-08-09T01:27:42.440Z,28.14
2022-08-09T01:28:42.442Z,29.38
2022-08-09T01:29:55.507Z,29.17
2022-08-09T01:30:52.339Z,29.68
2022-08-09T01:32:32.534Z,29.48
2022-08-09T01:32:45.290Z,31.51
2022-08-09T01:33:42.372Z,31.10
2022-08-09T01:34:42.362Z,31.10
2022-08-09T01:35:42.536Z,32.83
2022-08-09T01:36:42.343Z,31.10
2022-08-09T01:38:05.563Z,33.54
2022-08-09T01:38:46.317Z,32.14
2022-08-09T01:39:42.484Z,31.63
2022-08-09T01:40:42.321Z,31.83
2022-08-09T01:41:53.519Z,33.05
2022-08-09T01:42:42.331Z,32.04
2022-08-09T01:43:51.644Z,35.80
2022-08-09T01:44:43.278Z,32.34
2022-08-09T01:45:46.205Z,34.80
2022-08-09T01:46:42.357Z,32.15
2022-08-09T01:47:44.855Z,31.34
2022-08-09T01:48:43.226Z,31.13
2022-08-09T01:49:42.192Z,29.91
2022-08-09T01:50:42.181Z,31.24
2022-08-09T01:51:42.687Z,31.24
2022-08-09T01:52:43.407Z,31.54
2022-08-09T01:53:42.149Z,31.13
2022-08-09T01:54:42.137Z,32.46
2022-08-09T01:55:42.122Z,31.13
2022-08-09T01:56:42.115Z,29.50
2022-08-09T01:57:44.212Z,28.08
2022-08-09T01:58:42.096Z,28.89
2022-08-09T01:59:51.580Z,29.71
2022-08-09T02:00:43.118Z,29.61
2022-08-09T02:01:58.753Z,28.80
2022-08-09T02:02:43.070Z,31.44
2022-08-09T02:03:42.033Z,30.94
2022-08-09T02:04:45.505Z,31.86
2022-08-09T02:06:03.825Z,31.15
2022-08-09T02:06:45.449Z,28.40
2022-08-09T02:08:40.415Z,29.00
2022-08-09T02:08:58.847Z,29.11
2022-08-09T02:09:42.898Z,29.61
2022-08-09T02:10:42.808Z,29.52
2022-08-09T02:11:43.778Z,30.33
2022-08-09T02:12:41.955Z,28.50
2022-08-09T02:13:41.921Z,29.72
2022-08-09T02:14:41.915Z,29.72
2022-08-09T02:15:49.448Z,31.56
2022-08-09T02:16:58.944Z,32.27
2022-08-09T02:18:09.644Z,30.33
2022-08-09T02:18:48.392Z,30.33
2022-08-09T02:19:43.171Z,28.81
2022-08-09T02:20:41.846Z,29.42
2022-08-09T02:21:41.831Z,27.69
2022-08-09T02:22:45.596Z,27.59
2022-08-09T02:23:42.854Z,27.08
2022-08-09T02:24:41.799Z,27.69
2022-08-09T02:25:42.357Z,27.18
2022-08-09T02:26:42.666Z,27.08
2022-08-09T02:27:57.409Z,26.87
2022-08-09T02:28:41.753Z,26.16
2022-08-09T02:29:41.741Z,25.65
2022-08-09T02:30:41.748Z,25.75
2022-08-09T02:31:41.719Z,26.98
2022-08-09T02:32:41.711Z,28.09
2022-08-09T02:34:06.629Z,29.72
2022-08-09T02:34:51.887Z,28.60
2022-08-09T02:36:02.860Z,30.13
2022-08-09T02:36:41.869Z,30.04
2022-08-09T02:37:41.652Z,29.33
2022-08-09T02:38:41.642Z,29.94
2022-08-09T02:39:42.009Z,27.60
2022-08-09T02:40:41.688Z,29.13
2022-08-09T02:41:41.609Z,27.70
2022-08-09T02:42:41.597Z,27.29
2022-08-09T02:43:47.765Z,26.78
2022-08-09T02:44:42.599Z,25.97
2022-08-09T02:45:41.562Z,27.39
2022-08-09T02:46:41.552Z,26.89
2022-08-09T02:47:57.642Z,26.48
2022-08-09T02:48:46.121Z,26.07
2022-08-09T02:49:41.688Z,24.65
2022-08-09T02:50:41.505Z,25.14
2022-08-09T02:51:41.496Z,26.57
2022-08-09T02:52:41.483Z,25.24
2022-08-09T02:53:43.157Z,25.35
2022-08-09T02:54:54.704Z,25.85
2022-08-09T02:55:57.404Z,25.35
2022-08-09T02:56:41.440Z,25.97
2022-08-09T02:58:00.624Z,26.28
2022-08-09T02:58:41.418Z,25.67
2022-08-09T03:00:11.497Z,25.85
2022-08-09T03:00:48.007Z,26.17
2022-08-09T03:01:43.226Z,25.56
2022-08-09T03:02:46.331Z,24.85
2022-08-09T03:04:18.088Z,24.44
2022-08-09T03:04:41.350Z,23.93
2022-08-09T03:05:41.338Z,25.14
2022-08-09T03:06:41.325Z,25.36
2022-08-09T03:07:41.314Z,25.67
2022-08-09T03:08:41.303Z,26.68
2022-08-09T03:09:43.050Z,27.39
2022-08-09T03:10:41.281Z,26.38
2022-08-09T03:12:05.617Z,26.28
2022-08-09T03:12:42.284Z,26.79
2022-08-09T03:13:43.618Z,26.48
2022-08-09T03:14:41.237Z,24.04
2022-08-09T03:16:06.437Z,26.58
2022-08-09T03:16:47.423Z,24.95
2022-08-09T03:17:41.202Z,26.48
2022-08-09T03:18:41.190Z,25.88
2022-08-09T03:19:58.681Z,25.67
2022-08-09T03:20:42.198Z,26.59
2022-08-09T03:21:41.159Z,25.88
2022-08-09T03:22:42.102Z,25.98
2022-08-09T03:23:41.135Z,25.47
2022-08-09T03:24:52.259Z,24.25
2022-08-09T03:25:58.596Z,25.78
2022-08-09T03:26:45.229Z,24.15
2022-08-09T03:27:44.722Z,25.27
2022-08-09T03:28:43.611Z,25.68
2022-08-09T03:29:57.224Z,26.09
2022-08-09T03:30:41.056Z,27.81
2022-08-09T03:31:42.385Z,25.47
2022-08-09T03:32:42.994Z,25.27
2022-08-09T03:33:53.104Z,25.98
2022-08-09T03:34:41.007Z,25.16
2022-08-09T03:36:14.020Z,25.37
2022-08-09T03:36:42.010Z,23.74
2022-08-09T03:37:56.266Z,23.43
2022-08-09T03:38:42.666Z,24.15
2022-08-09T03:39:40.979Z,22.81
2022-08-09T03:40:40.941Z,24.24
2022-08-09T03:41:46.068Z,23.74
2022-08-09T03:42:43.073Z,23.02
2022-08-09T03:43:40.908Z,23.84
2022-08-09T03:44:40.896Z,23.94
2022-08-09T03:46:13.556Z,24.15
2022-08-09T03:46:40.879Z,24.05
2022-08-09T03:47:42.150Z,23.74
2022-08-09T03:48:48.255Z,23.43
2022-08-09T03:49:41.862Z,24.15
2022-08-09T03:50:41.853Z,23.32
2022-08-09T03:51:57.792Z,23.23
2022-08-09T03:52:41.806Z,23.33
2022-08-09T03:53:40.798Z,24.15
2022-08-09T03:54:40.785Z,23.43
2022-08-09T03:55:42.305Z,25.68
2022-08-09T03:56:41.225Z,26.29
2022-08-09T03:57:44.525Z,22.92
2022-08-09T03:58:40.738Z,22.31
2022-08-09T03:59:52.875Z,23.23
2022-08-09T04:00:41.814Z,22.52
2022-08-09T04:01:40.708Z,23.74
2022-08-09T04:02:40.709Z,23.64
2022-08-09T04:04:01.443Z,24.35
2022-08-09T04:04:45.537Z,25.16
2022-08-09T04:05:40.747Z,24.55
2022-08-09T04:06:40.647Z,24.87
2022-08-09T04:07:53.505Z,24.55
2022-08-09T04:08:41.652Z,25.28
2022-08-09T04:09:47.911Z,25.69
2022-08-09T04:10:40.604Z,25.79
2022-08-09T04:11:40.593Z,24.57
2022-08-09T04:12:40.917Z,25.28
2022-08-09T04:14:37.602Z,25.28
2022-08-09T04:15:00.606Z,25.99
2022-08-09T04:16:17.651Z,24.98
2022-08-09T04:16:40.537Z,24.67
2022-08-09T04:17:42.289Z,24.98
2022-08-09T04:18:40.513Z,24.57
2022-08-09T04:19:51.226Z,24.35
2022-08-09T04:20:41.517Z,25.69
2022-08-09T04:21:40.481Z,24.87
2022-08-09T04:22:41.248Z,24.67
2022-08-09T04:23:40.458Z,23.74
2022-08-09T04:24:41.514Z,23.03
2022-08-09T04:25:40.436Z,22.41
2022-08-09T04:26:40.422Z,22.41
2022-08-09T04:27:40.414Z,22.82
2022-08-09T04:28:42.295Z,22.41
2022-08-09T04:29:40.694Z,21.69
2022-08-09T04:30:44.842Z,22.30
2022-08-09T04:31:47.094Z,21.89
2022-08-09T04:32:40.460Z,22.30
2022-08-09T04:33:51.777Z,21.80
2022-08-09T04:34:40.334Z,23.63
2022-08-09T04:35:40.324Z,22.30
2022-08-09T04:36:43.631Z,21.89
2022-08-09T04:37:42.240Z,21.80
2022-08-09T04:38:40.288Z,22.00
2022-08-09T04:39:40.660Z,21.80
2022-08-09T04:40:40.263Z,21.69
2022-08-09T04:41:43.650Z,21.80
2022-08-09T04:42:40.242Z,21.69
2022-08-09T04:43:53.699Z,21.49
2022-08-09T04:44:41.247Z,21.39
2022-08-09T04:45:53.123Z,21.37
2022-08-09T04:46:58.475Z,21.48
2022-08-09T04:47:58.787Z,21.89
2022-08-09T04:48:41.226Z,21.17
2022-08-09T04:49:55.109Z,21.17
2022-08-09T04:50:40.151Z,20.76
2022-08-09T04:51:40.162Z,20.76
2022-08-09T04:52:40.141Z,21.06
2022-08-09T04:53:40.119Z,20.76
2022-08-09T04:54:40.106Z,19.43
2022-08-09T04:55:58.398Z,20.35
2022-08-09T04:56:40.094Z,20.25
2022-08-09T04:57:58.718Z,20.35
2022-08-09T04:58:40.068Z,20.25
2022-08-09T04:59:40.062Z,20.65
2022-08-09T05:00:40.041Z,20.35
2022-08-09T05:01:40.056Z,20.86
2022-08-09T05:02:40.017Z,19.93
2022-08-09T05:03:43.912Z,19.42
2022-08-09T05:04:40.061Z,19.52
2022-08-09T05:05:51.997Z,19.52
2022-08-09T05:06:39.976Z,19.31
2022-08-09T05:07:39.963Z,19.10
2022-08-09T05:08:43.891Z,18.38
2022-08-09T05:09:45.558Z,18.78
2022-08-09T05:10:39.933Z,18.68
2022-08-09T05:11:39.950Z,19.68
2022-08-09T05:12:39.903Z,20.79
2022-08-09T05:13:40.048Z,23.11
2022-08-09T05:14:40.998Z,23.30
2022-08-09T05:15:47.624Z,29.47
2022-08-09T05:16:57.977Z,29.88
2022-08-09T05:18:37.691Z,31.58
2022-08-09T05:18:57.198Z,33.69
2022-08-09T05:19:46.002Z,33.89
2022-08-09T05:20:39.823Z,35.30
2022-08-09T05:21:47.201Z,40.44
2022-08-09T05:23:53.658Z,41.64
2022-08-09T05:23:54.696Z,48.93
2022-08-09T05:24:40.794Z,45.06
2022-08-09T05:25:39.760Z,50.01
2022-08-09T05:26:46.310Z,54.96
2022-08-09T05:27:47.748Z,53.42
2022-08-09T05:28:39.728Z,54.13
2022-08-09T05:29:39.719Z,51.48
2022-08-09T05:30:41.823Z,52.87
2022-08-09T05:31:46.810Z,53.88
2022-08-09T05:32:40.707Z,56.81
2022-08-09T05:33:42.650Z,56.90
2022-08-09T05:34:42.878Z,59.22
2022-08-09T05:35:49.824Z,58.72
2022-08-09T05:36:39.635Z,56.48
2022-08-09T05:37:50.158Z,65.05
2022-08-09T05:38:39.613Z,61.52
2022-08-09T05:39:43.615Z,64.14
2022-08-09T05:40:39.642Z,63.87
2022-08-09T05:41:39.588Z,64.54
2022-08-09T05:42:39.571Z,67.07
2022-08-09T05:43:40.736Z,63.64
2022-08-09T05:44:39.552Z,65.85
2022-08-09T05:45:52.781Z,63.33
2022-08-09T05:46:39.817Z,66.39
2022-08-09T05:47:45.557Z,65.18
2022-08-09T05:48:39.506Z,63.09
2022-08-09T05:50:23.611Z,60.57
2022-08-09T05:51:10.205Z,60.36
2022-08-09T05:51:46.511Z,63.16
2022-08-09T05:52:40.514Z,63.93
2022-08-09T05:53:56.492Z,68.95
2022-08-09T05:54:40.461Z,71.44
2022-08-09T05:55:39.477Z,72.37
2022-08-09T05:56:39.417Z,74.05
2022-08-09T05:57:51.205Z,76.76
2022-08-09T05:58:39.403Z,78.61
2022-08-09T05:59:39.542Z,76.30
2022-08-09T06:00:39.653Z,76.23
2022-08-09T06:01:42.556Z,74.73
2022-08-09T06:02:39.434Z,73.05
2022-08-09T06:03:44.231Z,72.98
2022-08-09T06:04:44.807Z,71.47
2022-08-09T06:05:57.591Z,72.85
2022-08-09T06:06:41.686Z,74.86
2022-08-09T06:07:39.327Z,73.95
2022-08-09T06:08:39.277Z,71.23
2022-08-09T06:09:54.356Z,71.47
2022-08-09T06:10:40.282Z,69.65
2022-08-09T06:11:41.125Z,67.43
2022-08-09T06:12:39.338Z,69.18
2022-08-09T06:13:39.493Z,68.17
2022-08-09T06:14:39.210Z,66.16
2022-08-09T06:15:39.201Z,65.25
2022-08-09T06:16:39.190Z,69.65
2022-08-09T06:17:40.639Z,68.68
2022-08-09T06:18:39.169Z,70.49
2022-08-09T06:19:39.163Z,69.99
2022-08-09T06:20:39.162Z,70.79
2022-08-09T06:21:39.745Z,69.08
2022-08-09T06:22:40.251Z,66.25
2022-08-09T06:23:55.056Z,67.87
2022-08-09T06:24:39.253Z,68.57
2022-08-09T06:25:39.127Z,68.04
2022-08-09T06:26:39.180Z,69.18
2022-08-09T06:27:42.329Z,68.27
2022-08-09T06:28:39.249Z,66.42
2022-08-09T06:29:47.945Z,67.74
2022-08-09T06:30:39.080Z,69.05
2022-08-09T06:32:08.114Z,68.04
2022-08-09T06:32:59.583Z,70.56
2022-08-09T06:33:42.073Z,71.06
2022-08-09T06:34:38.995Z,70.56
2022-08-09T06:35:57.048Z,71.57
2022-08-09T06:36:42.954Z,70.83
2022-08-09T06:37:53.346Z,70.42
2022-08-09T06:38:39.991Z,75.06
2022-08-09T06:39:57.506Z,74.35
2022-08-09T06:40:39.009Z,72.00
2022-08-09T06:41:39.711Z,74.02
2022-08-09T06:42:45.052Z,72.20
2022-08-09T06:43:39.758Z,74.12
2022-08-09T06:44:38.886Z,76.43
2022-08-09T06:46:07.629Z,75.49
2022-08-09T06:46:39.770Z,77.70
2022-08-09T06:47:41.743Z,76.70
2022-08-09T06:48:42.909Z,75.19
2022-08-09T06:49:52.363Z,74.75
2022-08-09T06:50:39.858Z,75.86
2022-08-09T06:51:39.146Z,78.88
2022-08-09T06:52:38.799Z,78.44
2022-08-09T06:53:38.872Z,80.85
2022-08-09T06:54:38.807Z,79.44
2022-08-09T06:55:38.766Z,78.80
2022-08-09T06:56:39.054Z,79.77
2022-08-09T06:58:02.196Z,82.34
2022-08-09T07:00:46.608Z,84.75
2022-08-09T07:00:50.246Z,85.38
2022-08-09T07:00:51.800Z,87.74
2022-08-09T07:01:54.274Z,90.20
2022-08-09T07:02:40.038Z,90.86
2022-08-09T07:03:39.768Z,91.36
2022-08-09T07:04:38.664Z,90.88
2022-08-09T07:05:53.611Z,92.48
2022-08-09T07:06:39.979Z,92.24
2022-08-09T07:08:00.450Z,93.33
2022-08-09T07:08:39.674Z,93.84
2022-08-09T07:09:55.041Z,94.49
2022-08-09T07:10:39.046Z,94.24
2022-08-09T07:11:52.057Z,94.35
2022-08-09T07:12:41.364Z,94.30
2022-08-09T07:14:03.930Z,93.16
2022-08-09T07:14:38.554Z,93.01
2022-08-09T07:16:35.381Z,92.72
2022-08-09T07:16:49.034Z,91.38
2022-08-09T07:17:52.709Z,84.91
2022-08-09T07:18:40.089Z,86.24
2022-08-09T07:19:38.500Z,80.40
2022-08-09T07:20:39.689Z,85.47
2022-08-09T07:21:38.475Z,86.47
2022-08-09T07:22:43.779Z,87.58
2022-08-09T07:23:56.549Z,85.64
2022-08-09T07:24:40.517Z,82.95
2022-08-09T07:25:42.625Z,78.41
2022-08-09T07:26:38.424Z,83.13
2022-08-09T07:27:42.714Z,84.73
2022-08-09T07:28:38.398Z,81.70
2022-08-09T07:29:42.830Z,76.37
2022-08-09T07:30:38.386Z,78.86
2022-08-09T07:31:45.326Z,80.68
2022-08-09T07:32:38.607Z,73.61
2022-08-09T07:33:52.513Z,73.57
2022-08-09T07:34:38.337Z,70.95
2022-08-09T07:35:53.181Z,72.34
2022-08-09T07:36:38.362Z,72.14
2022-08-09T07:37:42.798Z,72.98
2022-08-09T07:38:39.319Z,76.23
2022-08-09T07:39:41.518Z,76.66
2022-08-09T07:41:08.019Z,75.16
2022-08-09T07:41:38.851Z,74.63
2022-08-09T07:42:38.250Z,73.30
2022-08-09T07:43:49.652Z,70.19
2022-08-09T07:44:51.841Z,66.18
2022-08-09T07:45:40.964Z,62.50
2022-08-09T07:46:38.215Z,65.45
2022-08-09T07:47:49.644Z,60.39
2022-08-09T07:48:39.367Z,61.24
2022-08-09T07:50:05.455Z,60.82
2022-08-09T07:50:39.190Z,60.61
2022-08-09T07:52:06.229Z,57.43
2022-08-09T07:52:38.147Z,58.20
2022-08-09T07:54:04.237Z,56.59
2022-08-09T07:54:39.804Z,56.56
2022-08-09T07:55:41.432Z,56.66
2022-08-09T07:56:44.903Z,57.55
2022-08-09T07:57:47.239Z,58.25
2022-08-09T07:58:38.093Z,55.79
2022-08-09T07:59:45.600Z,56.94
2022-08-09T08:00:49.293Z,58.09
2022-08-09T08:01:38.225Z,59.11
2022-08-09T08:02:42.442Z,60.21
2022-08-09T08:03:38.024Z,62.76
2022-08-09T08:04:38.013Z,62.93
2022-08-09T08:05:53.425Z,60.82
2022-08-09T08:06:55.902Z,64.06
2022-08-09T08:08:42.583Z,61.82
2022-08-09T08:09:01.830Z,59.11
2022-08-09T08:09:51.590Z,59.01
2022-08-09T08:10:37.977Z,54.94
2022-08-09T08:12:24.286Z,55.96
2022-08-09T08:12:43.647Z,54.97
2022-08-09T08:13:55.888Z,55.91
2022-08-09T08:14:38.945Z,57.04
2022-08-09T08:15:39.290Z,57.56
2022-08-09T08:16:39.622Z,56.67
2022-08-09T08:17:53.851Z,58.56
2022-08-09T08:18:38.890Z,59.48
2022-08-09T08:19:37.853Z,57.64
2022-08-09T08:20:37.859Z,55.29
2022-08-09T08:21:39.457Z,54.21
2022-08-09T08:22:37.823Z,55.79
2022-08-09T08:23:37.811Z,54.87
2022-08-09T08:24:40.567Z,55.24
2022-08-09T08:25:44.682Z,53.73
2022-08-09T08:26:42.532Z,52.64
2022-08-09T08:27:40.319Z,52.51
2022-08-09T08:28:37.758Z,52.09
2022-08-09T08:29:39.411Z,51.97
2022-08-09T08:30:39.058Z,52.26
2022-08-09T08:32:02.292Z,51.45
2022-08-09T08:32:52.703Z,50.46
2022-08-09T08:33:49.698Z,51.87
2022-08-09T08:34:38.718Z,51.57
2022-08-09T08:35:59.104Z,52.14
2022-08-09T08:36:37.671Z,52.31
2022-08-09T08:37:41.412Z,49.84
2022-08-09T08:38:38.682Z,50.36
2022-08-09T08:39:43.575Z,50.78
2022-08-09T08:40:37.635Z,49.94
2022-08-09T08:41:50.997Z,50.48
2022-08-09T08:42:38.639Z,52.64
2022-08-09T08:43:37.603Z,51.03
2022-08-09T08:44:37.622Z,50.26
2022-08-09T08:45:38.158Z,50.76
2022-08-09T08:46:41.353Z,50.93
2022-08-09T08:47:38.618Z,49.22
2022-08-09T08:48:38.585Z,48.53
2022-08-09T08:49:46.281Z,48.90
2022-08-09T08:50:38.595Z,48.02
2022-08-09T08:51:41.896Z,50.04
2022-08-09T08:52:59.184Z,50.04
2022-08-09T08:53:38.551Z,50.04
2022-08-09T08:54:38.428Z,50.24
2022-08-09T08:55:37.615Z,49.94
2022-08-09T08:56:37.758Z,49.44
2022-08-09T08:57:38.073Z,51.30
2022-08-09T08:58:37.795Z,48.33
2022-08-09T08:59:44.538Z,49.52
2022-08-09T09:00:38.690Z,47.89
2022-08-09T09:01:52.035Z,49.25
2022-08-09T09:02:39.044Z,47.85
2022-08-09T09:03:38.224Z,46.17
2022-08-09T09:04:47.752Z,47.63
2022-08-09T09:06:03.036Z,46.74
2022-08-09T09:06:38.395Z,45.73
2022-08-09T09:07:37.355Z,45.31
2022-08-09T09:08:37.888Z,45.43
2022-08-09T09:10:02.189Z,45.63
2022-08-09T09:10:37.327Z,45.24
2022-08-09T09:11:38.628Z,46.04
2022-08-09T09:12:37.531Z,45.95
2022-08-09T09:13:55.641Z,46.15
2022-08-09T09:14:38.305Z,46.86
2022-08-09T09:15:37.270Z,46.96
2022-08-09T09:16:37.771Z,47.03
2022-08-09T09:17:48.359Z,46.72
2022-08-09T09:18:38.408Z,45.71
2022-08-09T09:19:41.773Z,45.16
2022-08-09T09:20:37.262Z,46.12
2022-08-09T09:21:43.482Z,45.29
2022-08-09T09:22:37.500Z,46.06
2022-08-09T09:23:37.970Z,44.88
2022-08-09T09:24:38.013Z,44.76
2022-08-09T09:26:04.669Z,44.05
2022-08-09T09:26:38.404Z,43.53
2022-08-09T09:28:05.596Z,43.04
2022-08-09T09:29:01.975Z,43.04
2022-08-09T09:30:08.755Z,43.51
2022-08-09T09:30:41.087Z,41.37
2022-08-09T09:32:06.145Z,42.65
2022-08-09T09:32:38.680Z,42.72
2022-08-09T09:33:44.755Z,43.24
2022-08-09T09:34:37.082Z,43.33
2022-08-09T09:35:37.089Z,42.82
2022-08-09T09:36:37.063Z,41.94
2022-08-09T09:37:37.051Z,43.60
2022-08-09T09:38:37.270Z,43.50
2022-08-09T09:39:54.984Z,43.71
2022-08-09T09:40:37.098Z,43.93
2022-08-09T09:41:49.003Z,45.09
2022-08-09T09:42:37.105Z,43.60
2022-08-09T09:43:41.245Z,42.38
2022-08-09T09:44:38.009Z,42.57
2022-08-09T09:45:56.764Z,43.26
2022-08-09T09:46:42.834Z,42.25
2022-08-09T09:47:42.142Z,41.77
2022-08-09T09:48:38.010Z,42.55
2022-08-09T09:49:56.169Z,43.16
2022-08-09T09:50:37.960Z,42.18
2022-08-09T09:51:40.451Z,41.67
2022-08-09T09:52:37.750Z,41.92
2022-08-09T09:53:57.442Z,42.18
2022-08-09T09:54:37.924Z,40.98
2022-08-09T09:55:36.875Z,40.03
2022-08-09T09:56:36.873Z,40.25
2022-08-09T09:58:00.580Z,39.94
2022-08-09T09:58:37.360Z,39.64
2022-08-09T09:59:36.840Z,40.17
2022-08-09T10:00:36.826Z,41.02
2022-08-09T10:01:40.498Z,40.06
2022-08-09T10:02:36.804Z,40.11
2022-08-09T10:03:36.815Z,39.90
2022-08-09T10:04:36.840Z,40.58
2022-08-09T10:06:03.449Z,40.39
2022-08-09T10:06:37.788Z,40.21
2022-08-09T10:07:36.754Z,40.35
2022-08-09T10:08:42.695Z,41.74
2022-08-09T10:09:37.756Z,42.21
2022-08-09T10:10:36.721Z,40.62
2022-08-09T10:12:01.413Z,40.61
2022-08-09T10:12:43.763Z,40.19
2022-08-09T10:13:45.020Z,38.72
2022-08-09T10:14:36.686Z,39.61
2022-08-09T10:16:09.478Z,39.01
2022-08-09T10:16:58.263Z,40.21
2022-08-09T10:17:50.568Z,39.01
2022-08-09T10:18:36.649Z,40.01
2022-08-09T10:19:36.639Z,41.41
2022-08-09T10:20:44.900Z,40.45
2022-08-09T10:21:37.700Z,41.14
2022-08-09T10:22:36.672Z,40.47
2022-08-09T10:23:36.596Z,40.76
2022-08-09T10:24:36.589Z,41.14
2022-08-09T10:26:07.030Z,39.43
2022-08-09T10:26:36.573Z,39.70
2022-08-09T10:27:44.958Z,38.31
2022-08-09T10:28:36.555Z,38.31
2022-08-09T10:30:43.933Z,38.70
2022-08-09T10:32:42.468Z,37.08
2022-08-09T10:34:10.318Z,37.75
2022-08-09T10:34:37.514Z,38.57
2022-08-09T10:35:36.479Z,38.16
2022-08-09T10:36:36.469Z,37.81
2022-08-09T10:37:38.389Z,38.88
2022-08-09T10:38:56.200Z,37.57
2022-08-09T10:39:40.717Z,36.96
2022-08-09T10:40:40.909Z,36.59
2022-08-09T10:41:37.445Z,37.39
2022-08-09T10:42:36.413Z,38.18
2022-08-09T10:43:47.062Z,37.88
2022-08-09T10:44:37.432Z,38.39
2022-08-09T10:45:49.420Z,40.53
2022-08-09T10:46:52.301Z,37.87
2022-08-09T10:48:17.102Z,39.07
2022-08-09T10:48:37.375Z,39.37
2022-08-09T10:49:50.346Z,37.57
2022-08-09T10:50:37.374Z,37.10
2022-08-09T10:51:41.284Z,37.71
2022-08-09T10:52:36.607Z,38.18
2022-08-09T10:53:38.102Z,37.65
2022-08-09T10:54:36.294Z,36.67
2022-08-09T10:55:58.339Z,36.83
2022-08-09T10:56:37.328Z,35.64
2022-08-09T10:57:37.788Z,36.33
2022-08-09T10:58:37.395Z,36.82
2022-08-09T10:59:43.280Z,35.92
2022-08-09T11:00:36.235Z,35.45
2022-08-09T11:03:13.265Z,36.24
2022-08-09T11:03:14.732Z,36.79
2022-08-09T11:03:51.391Z,37.39
2022-08-09T11:04:36.273Z,37.39
2022-08-09T11:05:36.760Z,37.49
2022-08-09T11:06:37.289Z,37.26
2022-08-09T11:07:56.779Z,36.33
2022-08-09T11:08:43.721Z,35.43
2022-08-09T11:09:37.207Z,35.22
2022-08-09T11:10:36.141Z,35.57
2022-08-09T11:11:36.129Z,34.50
2022-08-09T11:12:37.181Z,35.55
2022-08-09T11:13:50.041Z,34.01
2022-08-09T11:14:36.101Z,34.48
2022-08-09T11:15:38.434Z,33.82
2022-08-09T11:16:37.739Z,33.73
2022-08-09T11:17:41.781Z,34.47
2022-08-09T11:18:37.146Z,36.79
2022-08-09T11:20:11.927Z,36.16
2022-08-09T11:20:36.046Z,35.97
2022-08-09T11:21:36.038Z,36.82
2022-08-09T11:22:36.198Z,34.96
2022-08-09T11:23:36.043Z,36.04
2022-08-09T11:24:36.021Z,35.16
2022-08-09T11:25:47.449Z,35.17
2022-08-09T11:26:37.012Z,34.39
2022-08-09T11:28:03.147Z,34.86
2022-08-09T11:28:38.894Z,35.84
2022-08-09T11:30:06.157Z,34.45
2022-08-09T11:30:36.731Z,34.53
2022-08-09T11:31:36.879Z,33.95
2022-08-09T11:32:35.932Z,35.07
2022-08-09T11:33:35.918Z,35.30
2022-08-09T11:34:35.910Z,35.94
2022-08-09T11:35:48.983Z,36.90
2022-08-09T11:36:36.962Z,35.52
2022-08-09T11:37:40.926Z,36.32
2022-08-09T11:38:41.311Z,36.10
2022-08-09T11:39:38.607Z,36.26
2022-08-09T11:40:35.850Z,36.73
2022-08-09T11:41:38.646Z,35.64
2022-08-09T11:42:35.833Z,34.68
2022-08-09T11:43:35.826Z,35.64
2022-08-09T11:44:35.817Z,34.83
2022-08-09T11:45:42.702Z,34.21
2022-08-09T11:46:35.815Z,33.69
2022-08-09T11:47:35.806Z,33.43
2022-08-09T11:48:35.887Z,33.73
2022-08-09T11:49:42.896Z,32.92
2022-08-09T11:50:56.478Z,34.40
2022-08-09T11:52:49.995Z,32.86
2022-08-09T11:53:00.959Z,34.40
2022-08-09T11:53:59.281Z,33.62
2022-08-09T11:54:36.739Z,33.43
2022-08-09T11:55:52.792Z,33.41
2022-08-09T11:56:47.544Z,33.18
2022-08-09T11:58:00.135Z,32.31
2022-08-09T11:58:36.702Z,32.11
2022-08-09T11:59:35.673Z,31.98
2022-08-09T12:00:35.658Z,32.10
2022-08-09T12:01:37.590Z,31.97
2022-08-09T12:02:52.367Z,32.94
2022-08-09T12:03:56.312Z,32.28
2022-08-09T12:04:38.136Z,33.15
2022-08-09T12:05:39.588Z,32.67
2022-08-09T12:06:35.601Z,32.60
2022-08-09T12:07:42.305Z,33.09
2022-08-09T12:08:35.678Z,32.70
2022-08-09T12:09:35.571Z,32.20
2022-08-09T12:10:39.720Z,32.76
2022-08-09T12:12:02.315Z,32.64
2022-08-09T12:12:36.567Z,32.31
2022-08-09T12:14:10.651Z,31.63
2022-08-09T12:14:48.895Z,31.32
2022-08-09T12:15:49.812Z,30.13
2022-08-09T12:16:38.097Z,29.94
2022-08-09T12:17:43.689Z,30.52
2022-08-09T12:18:35.551Z,31.23
2022-08-09T12:19:35.493Z,31.63
2022-08-09T12:20:35.467Z,31.32
2022-08-09T12:21:38.639Z,31.23
2022-08-09T12:22:35.745Z,32.15
2022-08-09T12:23:56.243Z,31.79
2022-08-09T12:24:36.460Z,32.15
2022-08-09T12:25:37.391Z,31.74
2022-08-09T12:26:35.410Z,31.94
2022-08-09T12:29:00.149Z,33.20
2022-08-09T12:29:09.668Z,32.20
2022-08-09T12:29:52.456Z,33.77
2022-08-09T12:30:38.696Z,33.53
2022-08-09T12:32:01.837Z,31.65
2022-08-09T12:32:35.533Z,31.84
2022-08-09T12:33:59.512Z,32.07
2022-08-09T12:34:36.364Z,32.86
2022-08-09T12:35:40.879Z,32.64
2022-08-09T12:36:36.076Z,32.44
2022-08-09T12:37:44.225Z,31.07
2022-08-09T12:38:38.557Z,31.55
2022-08-09T12:39:37.655Z,30.95
2022-08-09T12:40:35.275Z,30.65
2022-08-09T12:41:40.011Z,31.12
2022-08-09T12:42:35.667Z,31.34
2022-08-09T12:44:06.181Z,31.53
2022-08-09T12:44:37.424Z,32.34
2022-08-09T12:45:38.498Z,32.32
2022-08-09T12:46:36.078Z,31.16
2022-08-09T12:47:40.730Z,31.68
2022-08-09T12:48:37.311Z,32.26
2022-08-09T12:49:35.184Z,31.90
2022-08-09T12:50:35.175Z,32.31
2022-08-09T12:51:59.898Z,32.67
2022-08-09T12:52:42.845Z,31.97
2022-08-09T12:53:38.491Z,32.05
2022-08-09T12:54:35.137Z,32.64